Vossburg, Mississippi
Current Conditions -  °F | °C
As of 4:58 PM on Tuesday 27 Jan 2015 (Local Time) from KMEI Reporting Station
Clear Clear  
Wind Chill: 61°   Ceiling: Unl
Heat Index: 61°   Visibility: 10mi
Dew Point: 31°   Wind: 7mph
Humidity: 32%   Direction: 350°N
Pressure: 30.07"   Gusts: NA
Location:  31.93°N, 88.94°W
Report Text: KMEI 272258Z 35006KT 10SM CLR 16/M01 A3007 RMK AO2 SLP182 T01611006
Loading
Personal Weather Stations






























Interactive Weather Map New forecast layout! Learn more

10-Day Weather Forecast

Advertisements
Track Severe Weather on mobile